sensor_id;sensor_type;location;lat;lon;timestamp;P1;durP1;ratioP1;P2;durP2;ratioP2
71667;SDS011;59504;54.806;9.640;2022-10-31T00:01:36;7.32;;;5.70;;
71667;SDS011;59504;54.806;9.640;2022-10-31T00:03:38;10.57;;;6.47;;
71667;SDS011;59504;54.806;9.640;2022-10-31T00:05:42;9.35;;;6.70;;
71667;SDS011;59504;54.806;9.640;2022-10-31T00:07:45;13.48;;;6.72;;
71667;SDS011;59504;54.806;9.640;2022-10-31T00:09:45;16.38;;;7.95;;
71667;SDS011;59504;54.806;9.640;2022-10-31T00:11:46;17.83;;;7.20;;
71667;SDS011;59504;54.806;9.640;2022-10-31T00:13:47;10.27;;;7.05;;
71667;SDS011;59504;54.806;9.640;2022-10-31T00:15:48;12.75;;;7.13;;
71667;SDS011;59504;54.806;9.640;2022-10-31T00:17:48;9.23;;;6.70;;
71667;SDS011;59504;54.806;9.640;2022-10-31T00:19:49;10.38;;;6.65;;
71667;SDS011;59504;54.806;9.640;2022-10-31T00:21:51;7.85;;;5.88;;
71667;SDS011;59504;54.806;9.640;2022-10-31T00:23:52;11.60;;;6.45;;
71667;SDS011;59504;54.806;9.640;2022-10-31T00:25:53;9.88;;;7.25;;
71667;SDS011;59504;54.806;9.640;2022-10-31T00:27:53;9.57;;;6.47;;
71667;SDS011;59504;54.806;9.640;2022-10-31T00:29:54;7.93;;;6.25;;
71667;SDS011;59504;54.806;9.640;2022-10-31T00:31:55;8.80;;;6.18;;
71667;SDS011;59504;54.806;9.640;2022-10-31T00:33:56;10.68;;;5.97;;
71667;SDS011;59504;54.806;9.640;2022-10-31T00:35:57;10.00;;;6.45;;
71667;SDS011;59504;54.806;9.640;2022-10-31T00:37:58;11.27;;;6.35;;
71667;SDS011;59504;54.806;9.640;2022-10-31T00:39:59;8.25;;;6.13;;
71667;SDS011;59504;54.806;9.640;2022-10-31T00:41:59;9.93;;;6.78;;
71667;SDS011;59504;54.806;9.640;2022-10-31T00:44:00;11.90;;;6.25;;
71667;SDS011;59504;54.806;9.640;2022-10-31T00:46:00;13.85;;;6.10;;
71667;SDS011;59504;54.806;9.640;2022-10-31T00:48:01;10.77;;;6.10;;
71667;SDS011;59504;54.806;9.640;2022-10-31T00:50:08;11.85;;;6.15;;
71667;SDS011;59504;54.806;9.640;2022-10-31T00:52:09;10.20;;;5.90;;
71667;SDS011;59504;54.806;9.640;2022-10-31T00:54:09;9.80;;;5.60;;
71667;SDS011;59504;54.806;9.640;2022-10-31T00:56:10;8.52;;;5.43;;
71667;SDS011;59504;54.806;9.640;2022-10-31T00:58:11;11.95;;;5.40;;
71667;SDS011;59504;54.806;9.640;2022-10-31T01:00:12;8.77;;;5.70;;
71667;SDS011;59504;54.806;9.640;2022-10-31T01:02:13;9.40;;;4.90;;
71667;SDS011;59504;54.806;9.640;2022-10-31T01:04:13;12.25;;;5.38;;
71667;SDS011;59504;54.806;9.640;2022-10-31T01:06:14;9.20;;;6.35;;
71667;SDS011;59504;54.806;9.640;2022-10-31T01:08:15;14.75;;;7.07;;
71667;SDS011;59504;54.806;9.640;2022-10-31T01:10:16;12.40;;;7.18;;
71667;SDS011;59504;54.806;9.640;2022-10-31T01:12:17;13.65;;;7.63;;
71667;SDS011;59504;54.806;9.640;2022-10-31T01:14:18;12.27;;;8.05;;
71667;SDS011;59504;54.806;9.640;2022-10-31T01:16:20;14.35;;;8.65;;
71667;SDS011;59504;54.806;9.640;2022-10-31T01:18:23;13.77;;;9.15;;
71667;SDS011;59504;54.806;9.640;2022-10-31T01:20:24;18.70;;;8.75;;
71667;SDS011;59504;54.806;9.640;2022-10-31T01:22:25;21.73;;;9.68;;
71667;SDS011;59504;54.806;9.640;2022-10-31T01:24:25;14.20;;;9.30;;
71667;SDS011;59504;54.806;9.640;2022-10-31T01:26:27;17.55;;;9.25;;
71667;SDS011;59504;54.806;9.640;2022-10-31T01:28:30;16.55;;;9.77;;
71667;SDS011;59504;54.806;9.640;2022-10-31T01:30:31;20.38;;;9.85;;
71667;SDS011;59504;54.806;9.640;2022-10-31T01:32:32;19.90;;;10.07;;
71667;SDS011;59504;54.806;9.640;2022-10-31T01:34:33;21.38;;;10.10;;
71667;SDS011;59504;54.806;9.640;2022-10-31T01:36:35;21.80;;;10.48;;
71667;SDS011;59504;54.806;9.640;2022-10-31T01:38:37;15.25;;;10.43;;
71667;SDS011;59504;54.806;9.640;2022-10-31T01:40:38;22.05;;;10.30;;
71667;SDS011;59504;54.806;9.640;2022-10-31T01:42:59;20.17;;;9.20;;
71667;SDS011;59504;54.806;9.640;2022-10-31T01:45:19;18.13;;;9.23;;
71667;SDS011;59504;54.806;9.640;2022-10-31T01:47:41;18.63;;;8.90;;
71667;SDS011;59504;54.806;9.640;2022-10-31T01:49:46;17.60;;;10.43;;
71667;SDS011;59504;54.806;9.640;2022-10-31T01:51:54;20.17;;;10.07;;
71667;SDS011;59504;54.806;9.640;2022-10-31T01:54:02;20.83;;;10.15;;
71667;SDS011;59504;54.806;9.640;2022-10-31T01:56:07;15.77;;;9.80;;
71667;SDS011;59504;54.806;9.640;2022-10-31T01:58:19;19.67;;;10.27;;
71667;SDS011;59504;54.806;9.640;2022-10-31T02:02:23;20.63;;;10.68;;
71667;SDS011;59504;54.806;9.640;2022-10-31T02:04:25;20.70;;;10.57;;
71667;SDS011;59504;54.806;9.640;2022-10-31T02:06:36;22.70;;;11.23;;
71667;SDS011;59504;54.806;9.640;2022-10-31T02:08:58;23.38;;;11.63;;
71667;SDS011;59504;54.806;9.640;2022-10-31T02:11:01;20.15;;;11.65;;
71667;SDS011;59504;54.806;9.640;2022-10-31T02:13:03;27.50;;;12.55;;
71667;SDS011;59504;54.806;9.640;2022-10-31T02:15:06;21.58;;;11.95;;
71667;SDS011;59504;54.806;9.640;2022-10-31T02:17:09;21.30;;;11.55;;
71667;SDS011;59504;54.806;9.640;2022-10-31T02:19:15;25.30;;;11.68;;
71667;SDS011;59504;54.806;9.640;2022-10-31T02:21:31;26.13;;;11.50;;
71667;SDS011;59504;54.806;9.640;2022-10-31T02:32:24;16.88;;;9.60;;
71667;SDS011;59504;54.806;9.640;2022-10-31T02:35:28;17.33;;;9.05;;
71667;SDS011;59504;54.806;9.640;2022-10-31T02:38:13;22.48;;;11.52;;
71667;SDS011;59504;54.806;9.640;2022-10-31T02:40:45;24.17;;;10.88;;
71667;SDS011;59504;54.806;9.640;2022-10-31T02:43:11;22.35;;;10.23;;
71667;SDS011;59504;54.806;9.640;2022-10-31T02:45:45;21.20;;;9.73;;
71667;SDS011;59504;54.806;9.640;2022-10-31T02:48:15;19.98;;;10.35;;
71667;SDS011;59504;54.806;9.640;2022-10-31T02:50:23;26.20;;;11.52;;
71667;SDS011;59504;54.806;9.640;2022-10-31T02:52:51;25.83;;;12.48;;
71667;SDS011;59504;54.806;9.640;2022-10-31T02:57:45;21.33;;;11.25;;
71667;SDS011;59504;54.806;9.640;2022-10-31T03:00:07;23.15;;;10.65;;
71667;SDS011;59504;54.806;9.640;2022-10-31T03:04:58;27.90;;;9.88;;
71667;SDS011;59504;54.806;9.640;2022-10-31T03:07:35;21.95;;;9.25;;
71667;SDS011;59504;54.806;9.640;2022-10-31T03:10:03;25.73;;;10.27;;
71667;SDS011;59504;54.806;9.640;2022-10-31T03:12:07;23.98;;;10.73;;
71667;SDS011;59504;54.806;9.640;2022-10-31T03:14:21;19.65;;;10.55;;
71667;SDS011;59504;54.806;9.640;2022-10-31T03:18:49;17.38;;;9.68;;
71667;SDS011;59504;54.806;9.640;2022-10-31T03:23:30;17.35;;;9.55;;
71667;SDS011;59504;54.806;9.640;2022-10-31T03:25:34;22.27;;;11.07;;
71667;SDS011;59504;54.806;9.640;2022-10-31T03:27:37;17.58;;;10.00;;
71667;SDS011;59504;54.806;9.640;2022-10-31T03:29:40;19.73;;;9.00;;
71667;SDS011;59504;54.806;9.640;2022-10-31T03:31:44;19.00;;;8.90;;
71667;SDS011;59504;54.806;9.640;2022-10-31T03:33:51;22.27;;;9.82;;
71667;SDS011;59504;54.806;9.640;2022-10-31T03:35:54;22.77;;;10.47;;
71667;SDS011;59504;54.806;9.640;2022-10-31T03:37:57;22.55;;;9.43;;
71667;SDS011;59504;54.806;9.640;2022-10-31T03:40:00;25.27;;;10.23;;
71667;SDS011;59504;54.806;9.640;2022-10-31T03:42:06;17.67;;;8.63;;
71667;SDS011;59504;54.806;9.640;2022-10-31T03:44:14;20.20;;;9.30;;
71667;SDS011;59504;54.806;9.640;2022-10-31T03:46:17;14.82;;;8.77;;
71667;SDS011;59504;54.806;9.640;2022-10-31T03:48:19;17.60;;;8.52;;
71667;SDS011;59504;54.806;9.640;2022-10-31T03:50:22;18.10;;;8.30;;
71667;SDS011;59504;54.806;9.640;2022-10-31T03:55:19;15.15;;;7.72;;
71667;SDS011;59504;54.806;9.640;2022-10-31T03:57:47;12.95;;;7.10;;
71667;SDS011;59504;54.806;9.640;2022-10-31T04:00:15;11.93;;;6.68;;
71667;SDS011;59504;54.806;9.640;2022-10-31T04:02:38;18.17;;;9.60;;
71667;SDS011;59504;54.806;9.640;2022-10-31T04:05:05;39.45;;;12.23;;
71667;SDS011;59504;54.806;9.640;2022-10-31T04:07:29;84.15;;;12.88;;
71667;SDS011;59504;54.806;9.640;2022-10-31T04:09:53;49.33;;;12.88;;
71667;SDS011;59504;54.806;9.640;2022-10-31T04:12:15;43.53;;;13.32;;
71667;SDS011;59504;54.806;9.640;2022-10-31T04:14:37;45.45;;;12.77;;
71667;SDS011;59504;54.806;9.640;2022-10-31T04:16:59;46.60;;;14.25;;
71667;SDS011;59504;54.806;9.640;2022-10-31T04:19:23;52.40;;;15.40;;
71667;SDS011;59504;54.806;9.640;2022-10-31T04:21:43;37.95;;;14.32;;
71667;SDS011;59504;54.806;9.640;2022-10-31T04:24:04;47.53;;;15.52;;
71667;SDS011;59504;54.806;9.640;2022-10-31T04:26:05;35.85;;;15.30;;
71667;SDS011;59504;54.806;9.640;2022-10-31T04:28:06;46.92;;;15.10;;
71667;SDS011;59504;54.806;9.640;2022-10-31T04:30:06;29.52;;;14.73;;
71667;SDS011;59504;54.806;9.640;2022-10-31T04:32:07;52.17;;;15.98;;
71667;SDS011;59504;54.806;9.640;2022-10-31T04:34:08;56.00;;;15.40;;
71667;SDS011;59504;54.806;9.640;2022-10-31T04:36:09;44.08;;;14.88;;
71667;SDS011;59504;54.806;9.640;2022-10-31T04:38:10;68.88;;;14.10;;
71667;SDS011;59504;54.806;9.640;2022-10-31T04:40:11;35.20;;;13.25;;
71667;SDS011;59504;54.806;9.640;2022-10-31T04:42:11;54.00;;;14.70;;
71667;SDS011;59504;54.806;9.640;2022-10-31T04:44:12;40.40;;;13.90;;
71667;SDS011;59504;54.806;9.640;2022-10-31T04:46:13;48.50;;;13.07;;
71667;SDS011;59504;54.806;9.640;2022-10-31T04:48:14;32.75;;;13.57;;
71667;SDS011;59504;54.806;9.640;2022-10-31T04:50:14;34.47;;;14.02;;
71667;SDS011;59504;54.806;9.640;2022-10-31T04:52:15;38.80;;;13.65;;
71667;SDS011;59504;54.806;9.640;2022-10-31T04:54:16;25.40;;;12.13;;
71667;SDS011;59504;54.806;9.640;2022-10-31T04:56:17;43.97;;;13.25;;
71667;SDS011;59504;54.806;9.640;2022-10-31T04:58:17;35.55;;;13.57;;
71667;SDS011;59504;54.806;9.640;2022-10-31T05:00:19;47.35;;;12.88;;
71667;SDS011;59504;54.806;9.640;2022-10-31T05:02:21;54.90;;;13.25;;
71667;SDS011;59504;54.806;9.640;2022-10-31T05:04:22;59.00;;;13.23;;
71667;SDS011;59504;54.806;9.640;2022-10-31T05:06:22;53.58;;;13.52;;
71667;SDS011;59504;54.806;9.640;2022-10-31T05:08:23;51.40;;;12.63;;
71667;SDS011;59504;54.806;9.640;2022-10-31T05:10:25;26.42;;;11.30;;
71667;SDS011;59504;54.806;9.640;2022-10-31T05:12:27;32.72;;;10.88;;
71667;SDS011;59504;54.806;9.640;2022-10-31T05:14:28;26.88;;;10.70;;
71667;SDS011;59504;54.806;9.640;2022-10-31T05:16:29;24.05;;;9.52;;
71667;SDS011;59504;54.806;9.640;2022-10-31T05:18:30;18.50;;;9.55;;
71667;SDS011;59504;54.806;9.640;2022-10-31T05:20:31;109.95;;;11.10;;
71667;SDS011;59504;54.806;9.640;2022-10-31T05:22:32;68.13;;;10.25;;
71667;SDS011;59504;54.806;9.640;2022-10-31T05:24:33;23.65;;;8.05;;
71667;SDS011;59504;54.806;9.640;2022-10-31T05:26:34;32.60;;;8.93;;
71667;SDS011;59504;54.806;9.640;2022-10-31T05:28:35;14.48;;;8.10;;
71667;SDS011;59504;54.806;9.640;2022-10-31T05:30:37;59.10;;;9.82;;
71667;SDS011;59504;54.806;9.640;2022-10-31T05:32:41;42.58;;;9.25;;
71667;SDS011;59504;54.806;9.640;2022-10-31T05:34:45;39.20;;;9.02;;
71667;SDS011;59504;54.806;9.640;2022-10-31T05:37:05;35.28;;;7.95;;
71667;SDS011;59504;54.806;9.640;2022-10-31T05:39:06;28.83;;;7.95;;
71667;SDS011;59504;54.806;9.640;2022-10-31T05:41:09;39.63;;;8.23;;
71667;SDS011;59504;54.806;9.640;2022-10-31T05:43:30;22.85;;;7.15;;
71667;SDS011;59504;54.806;9.640;2022-10-31T05:45:54;38.45;;;8.10;;
71667;SDS011;59504;54.806;9.640;2022-10-31T05:47:56;26.40;;;7.90;;
71667;SDS011;59504;54.806;9.640;2022-10-31T05:50:18;17.98;;;7.18;;
71667;SDS011;59504;54.806;9.640;2022-10-31T05:52:19;47.83;;;7.22;;
71667;SDS011;59504;54.806;9.640;2022-10-31T05:54:39;80.38;;;9.02;;
71667;SDS011;59504;54.806;9.640;2022-10-31T05:57:00;43.17;;;6.55;;
71667;SDS011;59504;54.806;9.640;2022-10-31T05:59:21;31.10;;;6.53;;
71667;SDS011;59504;54.806;9.640;2022-10-31T06:01:41;38.55;;;6.30;;
71667;SDS011;59504;54.806;9.640;2022-10-31T06:04:02;16.95;;;5.50;;
71667;SDS011;59504;54.806;9.640;2022-10-31T06:06:23;18.70;;;5.32;;
71667;SDS011;59504;54.806;9.640;2022-10-31T06:08:43;17.17;;;5.00;;
71667;SDS011;59504;54.806;9.640;2022-10-31T06:11:04;8.85;;;5.50;;
71667;SDS011;59504;54.806;9.640;2022-10-31T06:13:25;25.05;;;5.03;;
71667;SDS011;59504;54.806;9.640;2022-10-31T06:15:41;38.35;;;5.22;;
71667;SDS011;59504;54.806;9.640;2022-10-31T06:17:42;12.52;;;5.57;;
71667;SDS011;59504;54.806;9.640;2022-10-31T06:19:43;23.08;;;5.13;;
71667;SDS011;59504;54.806;9.640;2022-10-31T06:21:45;37.45;;;5.78;;
71667;SDS011;59504;54.806;9.640;2022-10-31T06:23:46;8.20;;;4.90;;
71667;SDS011;59504;54.806;9.640;2022-10-31T06:25:50;7.10;;;4.35;;
71667;SDS011;59504;54.806;9.640;2022-10-31T06:27:51;11.93;;;4.55;;
71667;SDS011;59504;54.806;9.640;2022-10-31T06:29:51;7.05;;;4.53;;
71667;SDS011;59504;54.806;9.640;2022-10-31T06:31:52;13.38;;;4.63;;
71667;SDS011;59504;54.806;9.640;2022-10-31T06:33:53;14.88;;;4.30;;
71667;SDS011;59504;54.806;9.640;2022-10-31T06:35:53;8.88;;;4.32;;
71667;SDS011;59504;54.806;9.640;2022-10-31T06:37:54;12.02;;;4.47;;
71667;SDS011;59504;54.806;9.640;2022-10-31T06:39:55;6.47;;;4.00;;
71667;SDS011;59504;54.806;9.640;2022-10-31T06:41:56;4.55;;;3.78;;
71667;SDS011;59504;54.806;9.640;2022-10-31T06:43:57;8.50;;;4.25;;
71667;SDS011;59504;54.806;9.640;2022-10-31T06:45:57;10.40;;;4.60;;
71667;SDS011;59504;54.806;9.640;2022-10-31T06:48:02;12.48;;;4.53;;
71667;SDS011;59504;54.806;9.640;2022-10-31T06:50:03;6.07;;;4.32;;
71667;SDS011;59504;54.806;9.640;2022-10-31T06:52:04;14.07;;;4.80;;
71667;SDS011;59504;54.806;9.640;2022-10-31T06:54:05;6.60;;;4.57;;
71667;SDS011;59504;54.806;9.640;2022-10-31T06:56:06;13.32;;;4.95;;
71667;SDS011;59504;54.806;9.640;2022-10-31T06:58:08;26.58;;;5.18;;
71667;SDS011;59504;54.806;9.640;2022-10-31T07:00:09;20.50;;;5.68;;
71667;SDS011;59504;54.806;9.640;2022-10-31T07:02:11;42.90;;;6.32;;
71667;SDS011;59504;54.806;9.640;2022-10-31T07:04:11;8.57;;;5.45;;
71667;SDS011;59504;54.806;9.640;2022-10-31T07:06:12;9.82;;;5.43;;
71667;SDS011;59504;54.806;9.640;2022-10-31T07:08:13;24.88;;;6.57;;
71667;SDS011;59504;54.806;9.640;2022-10-31T07:10:14;11.30;;;5.95;;
71667;SDS011;59504;54.806;9.640;2022-10-31T07:12:15;13.07;;;5.70;;
71667;SDS011;59504;54.806;9.640;2022-10-31T07:14:16;11.30;;;5.88;;
71667;SDS011;59504;54.806;9.640;2022-10-31T07:16:17;11.55;;;5.65;;
71667;SDS011;59504;54.806;9.640;2022-10-31T07:18:17;9.07;;;5.63;;
71667;SDS011;59504;54.806;9.640;2022-10-31T07:20:18;7.85;;;5.18;;
71667;SDS011;59504;54.806;9.640;2022-10-31T07:22:19;6.90;;;5.38;;
71667;SDS011;59504;54.806;9.640;2022-10-31T07:24:20;7.85;;;5.60;;
71667;SDS011;59504;54.806;9.640;2022-10-31T07:26:21;9.10;;;5.20;;
71667;SDS011;59504;54.806;9.640;2022-10-31T07:28:22;6.68;;;5.25;;
71667;SDS011;59504;54.806;9.640;2022-10-31T07:30:23;6.00;;;4.78;;
71667;SDS011;59504;54.806;9.640;2022-10-31T07:32:23;7.05;;;5.38;;
71667;SDS011;59504;54.806;9.640;2022-10-31T07:34:24;6.18;;;4.60;;
71667;SDS011;59504;54.806;9.640;2022-10-31T07:36:25;6.97;;;4.85;;
71667;SDS011;59504;54.806;9.640;2022-10-31T07:38:25;11.77;;;5.18;;
71667;SDS011;59504;54.806;9.640;2022-10-31T07:40:26;7.10;;;5.07;;
71667;SDS011;59504;54.806;9.640;2022-10-31T07:42:26;5.30;;;4.35;;
71667;SDS011;59504;54.806;9.640;2022-10-31T07:44:27;6.95;;;4.68;;
71667;SDS011;59504;54.806;9.640;2022-10-31T07:46:28;10.70;;;4.57;;
71667;SDS011;59504;54.806;9.640;2022-10-31T07:48:28;8.00;;;5.03;;
71667;SDS011;59504;54.806;9.640;2022-10-31T07:50:30;7.72;;;5.15;;
71667;SDS011;59504;54.806;9.640;2022-10-31T07:52:34;11.30;;;5.90;;
71667;SDS011;59504;54.806;9.640;2022-10-31T07:54:34;9.65;;;5.80;;
71667;SDS011;59504;54.806;9.640;2022-10-31T07:56:35;8.65;;;5.35;;
71667;SDS011;59504;54.806;9.640;2022-10-31T07:58:36;9.38;;;5.40;;
71667;SDS011;59504;54.806;9.640;2022-10-31T08:00:37;9.13;;;5.22;;
71667;SDS011;59504;54.806;9.640;2022-10-31T08:02:39;8.07;;;4.95;;
71667;SDS011;59504;54.806;9.640;2022-10-31T08:04:39;8.82;;;5.50;;
71667;SDS011;59504;54.806;9.640;2022-10-31T08:06:40;8.38;;;5.38;;
71667;SDS011;59504;54.806;9.640;2022-10-31T08:08:41;9.60;;;5.38;;
71667;SDS011;59504;54.806;9.640;2022-10-31T08:10:41;8.65;;;5.53;;
71667;SDS011;59504;54.806;9.640;2022-10-31T08:12:42;9.23;;;5.65;;
71667;SDS011;59504;54.806;9.640;2022-10-31T08:14:43;11.00;;;6.03;;
71667;SDS011;59504;54.806;9.640;2022-10-31T08:16:46;8.68;;;5.43;;
71667;SDS011;59504;54.806;9.640;2022-10-31T08:18:50;8.50;;;5.15;;
71667;SDS011;59504;54.806;9.640;2022-10-31T08:20:53;7.63;;;5.30;;
71667;SDS011;59504;54.806;9.640;2022-10-31T08:22:55;10.15;;;5.20;;
71667;SDS011;59504;54.806;9.640;2022-10-31T08:24:56;12.77;;;4.65;;
71667;SDS011;59504;54.806;9.640;2022-10-31T08:26:57;14.65;;;5.32;;
71667;SDS011;59504;54.806;9.640;2022-10-31T08:28:58;8.15;;;4.20;;
71667;SDS011;59504;54.806;9.640;2022-10-31T08:30:59;13.38;;;4.97;;
71667;SDS011;59504;54.806;9.640;2022-10-31T08:33:11;8.98;;;4.65;;
71667;SDS011;59504;54.806;9.640;2022-10-31T08:35:14;7.67;;;4.40;;
71667;SDS011;59504;54.806;9.640;2022-10-31T08:37:14;13.95;;;5.05;;
71667;SDS011;59504;54.806;9.640;2022-10-31T08:39:19;10.75;;;4.38;;
71667;SDS011;59504;54.806;9.640;2022-10-31T08:41:20;10.68;;;4.65;;
71667;SDS011;59504;54.806;9.640;2022-10-31T08:43:21;11.98;;;4.75;;
71667;SDS011;59504;54.806;9.640;2022-10-31T08:45:22;11.25;;;3.83;;
71667;SDS011;59504;54.806;9.640;2022-10-31T08:47:24;8.15;;;4.20;;
71667;SDS011;59504;54.806;9.640;2022-10-31T08:49:25;6.82;;;4.00;;
71667;SDS011;59504;54.806;9.640;2022-10-31T08:51:25;7.97;;;3.67;;
71667;SDS011;59504;54.806;9.640;2022-10-31T08:53:26;8.82;;;3.67;;
71667;SDS011;59504;54.806;9.640;2022-10-31T08:55:27;7.05;;;4.15;;
71667;SDS011;59504;54.806;9.640;2022-10-31T08:57:28;9.23;;;4.25;;
71667;SDS011;59504;54.806;9.640;2022-10-31T08:59:29;9.85;;;4.07;;
71667;SDS011;59504;54.806;9.640;2022-10-31T09:01:29;9.90;;;3.70;;
71667;SDS011;59504;54.806;9.640;2022-10-31T09:03:50;12.07;;;3.83;;
71667;SDS011;59504;54.806;9.640;2022-10-31T09:06:11;7.47;;;4.00;;
71667;SDS011;59504;54.806;9.640;2022-10-31T09:08:12;5.82;;;4.15;;
71667;SDS011;59504;54.806;9.640;2022-10-31T09:10:22;6.93;;;4.32;;
71667;SDS011;59504;54.806;9.640;2022-10-31T09:12:43;7.68;;;4.47;;
71667;SDS011;59504;54.806;9.640;2022-10-31T09:15:03;9.18;;;4.80;;
71667;SDS011;59504;54.806;9.640;2022-10-31T09:19:27;9.55;;;4.88;;
71667;SDS011;59504;54.806;9.640;2022-10-31T09:21:51;8.98;;;4.57;;
71667;SDS011;59504;54.806;9.640;2022-10-31T09:24:12;10.63;;;5.38;;
71667;SDS011;59504;54.806;9.640;2022-10-31T09:26:33;7.93;;;4.68;;
71667;SDS011;59504;54.806;9.640;2022-10-31T09:28:34;9.15;;;4.95;;
71667;SDS011;59504;54.806;9.640;2022-10-31T09:30:55;11.52;;;5.22;;
71667;SDS011;59504;54.806;9.640;2022-10-31T09:33:16;10.13;;;5.38;;
71667;SDS011;59504;54.806;9.640;2022-10-31T09:35:17;8.60;;;4.97;;
71667;SDS011;59504;54.806;9.640;2022-10-31T09:37:38;13.00;;;5.70;;
71667;SDS011;59504;54.806;9.640;2022-10-31T09:39:59;8.25;;;5.13;;
71667;SDS011;59504;54.806;9.640;2022-10-31T09:47:42;10.48;;;4.20;;
71667;SDS011;59504;54.806;9.640;2022-10-31T09:50:20;9.43;;;4.10;;
71667;SDS011;59504;54.806;9.640;2022-10-31T10:00:25;12.75;;;3.63;;
71667;SDS011;59504;54.806;9.640;2022-10-31T10:02:39;10.18;;;3.33;;
71667;SDS011;59504;54.806;9.640;2022-10-31T10:06:55;9.13;;;3.10;;
71667;SDS011;59504;54.806;9.640;2022-10-31T10:08:56;9.93;;;3.63;;
71667;SDS011;59504;54.806;9.640;2022-10-31T10:13:42;7.32;;;3.08;;
71667;SDS011;59504;54.806;9.640;2022-10-31T10:15:54;13.93;;;3.22;;
71667;SDS011;59504;54.806;9.640;2022-10-31T10:20:38;11.13;;;3.10;;
71667;SDS011;59504;54.806;9.640;2022-10-31T10:27:17;8.50;;;2.80;;
71667;SDS011;59504;54.806;9.640;2022-10-31T10:32:28;16.90;;;2.40;;
71667;SDS011;59504;54.806;9.640;2022-10-31T10:34:33;14.23;;;2.42;;
71667;SDS011;59504;54.806;9.640;2022-10-31T10:36:40;10.90;;;2.35;;
71667;SDS011;59504;54.806;9.640;2022-10-31T10:38:49;8.80;;;2.45;;
71667;SDS011;59504;54.806;9.640;2022-10-31T10:40:58;11.73;;;2.60;;
71667;SDS011;59504;54.806;9.640;2022-10-31T10:43:22;15.10;;;2.50;;
71667;SDS011;59504;54.806;9.640;2022-10-31T10:45:26;9.40;;;2.03;;
71667;SDS011;59504;54.806;9.640;2022-10-31T10:47:52;12.50;;;2.47;;
71667;SDS011;59504;54.806;9.640;2022-10-31T10:50:13;8.98;;;2.00;;
71667;SDS011;59504;54.806;9.640;2022-10-31T10:57:11;8.50;;;1.58;;
71667;SDS011;59504;54.806;9.640;2022-10-31T10:59:13;7.15;;;0.93;;
71667;SDS011;59504;54.806;9.640;2022-10-31T11:01:21;8.27;;;1.60;;
71667;SDS011;59504;54.806;9.640;2022-10-31T11:03:22;6.80;;;1.80;;
71667;SDS011;59504;54.806;9.640;2022-10-31T11:05:24;11.43;;;1.55;;
71667;SDS011;59504;54.806;9.640;2022-10-31T11:07:36;13.32;;;1.42;;
71667;SDS011;59504;54.806;9.640;2022-10-31T11:09:41;10.30;;;1.90;;
71667;SDS011;59504;54.806;9.640;2022-10-31T11:11:42;12.02;;;1.80;;
71667;SDS011;59504;54.806;9.640;2022-10-31T11:13:46;12.23;;;1.73;;
71667;SDS011;59504;54.806;9.640;2022-10-31T11:15:51;7.60;;;1.73;;
71667;SDS011;59504;54.806;9.640;2022-10-31T11:17:59;13.50;;;1.50;;
71667;SDS011;59504;54.806;9.640;2022-10-31T11:20:00;8.00;;;1.50;;
71667;SDS011;59504;54.806;9.640;2022-10-31T11:22:14;5.68;;;1.23;;
71667;SDS011;59504;54.806;9.640;2022-10-31T11:24:21;9.77;;;1.42;;
71667;SDS011;59504;54.806;9.640;2022-10-31T11:26:25;14.45;;;1.88;;
71667;SDS011;59504;54.806;9.640;2022-10-31T11:28:29;9.07;;;1.52;;
71667;SDS011;59504;54.806;9.640;2022-10-31T11:31:07;13.75;;;1.65;;
71667;SDS011;59504;54.806;9.640;2022-10-31T11:33:16;9.15;;;1.40;;
71667;SDS011;59504;54.806;9.640;2022-10-31T11:35:51;8.68;;;1.52;;
71667;SDS011;59504;54.806;9.640;2022-10-31T11:38:17;7.80;;;1.33;;
71667;SDS011;59504;54.806;9.640;2022-10-31T11:40:24;13.93;;;1.45;;
71667;SDS011;59504;54.806;9.640;2022-10-31T11:42:46;8.63;;;1.30;;
71667;SDS011;59504;54.806;9.640;2022-10-31T11:45:15;11.65;;;1.60;;
71667;SDS011;59504;54.806;9.640;2022-10-31T11:47:40;8.70;;;1.60;;
71667;SDS011;59504;54.806;9.640;2022-10-31T11:50:34;7.25;;;1.38;;
71667;SDS011;59504;54.806;9.640;2022-10-31T11:53:02;8.30;;;1.75;;
71667;SDS011;59504;54.806;9.640;2022-10-31T11:57:52;8.45;;;1.73;;
71667;SDS011;59504;54.806;9.640;2022-10-31T12:00:37;13.27;;;2.58;;
71667;SDS011;59504;54.806;9.640;2022-10-31T12:06:00;8.48;;;1.63;;
71667;SDS011;59504;54.806;9.640;2022-10-31T12:08:25;9.43;;;1.20;;
71667;SDS011;59504;54.806;9.640;2022-10-31T12:13:06;9.48;;;1.70;;
71667;SDS011;59504;54.806;9.640;2022-10-31T12:20:21;7.25;;;1.30;;
71667;SDS011;59504;54.806;9.640;2022-10-31T12:30:19;6.72;;;1.10;;
71667;SDS011;59504;54.806;9.640;2022-10-31T12:32:29;8.32;;;1.15;;
71667;SDS011;59504;54.806;9.640;2022-10-31T12:42:51;9.73;;;1.90;;
71667;SDS011;59504;54.806;9.640;2022-10-31T12:45:27;14.48;;;1.75;;
71667;SDS011;59504;54.806;9.640;2022-10-31T12:59:04;10.57;;;1.85;;
71667;SDS011;59504;54.806;9.640;2022-10-31T13:01:38;24.30;;;12.68;;
71667;SDS011;59504;54.806;9.640;2022-10-31T13:04:05;11.00;;;3.42;;
71667;SDS011;59504;54.806;9.640;2022-10-31T13:06:40;10.55;;;2.22;;
71667;SDS011;59504;54.806;9.640;2022-10-31T13:08:55;9.55;;;1.73;;
71667;SDS011;59504;54.806;9.640;2022-10-31T13:11:14;10.40;;;1.42;;
71667;SDS011;59504;54.806;9.640;2022-10-31T13:13:26;6.70;;;1.27;;
71667;SDS011;59504;54.806;9.640;2022-10-31T13:15:34;11.52;;;1.75;;
71667;SDS011;59504;54.806;9.640;2022-10-31T13:17:42;15.10;;;1.80;;
71667;SDS011;59504;54.806;9.640;2022-10-31T13:19:47;9.93;;;1.38;;
71667;SDS011;59504;54.806;9.640;2022-10-31T13:22:21;8.93;;;1.48;;
71667;SDS011;59504;54.806;9.640;2022-10-31T13:24:30;6.65;;;1.27;;
71667;SDS011;59504;54.806;9.640;2022-10-31T13:26:56;6.40;;;1.33;;
71667;SDS011;59504;54.806;9.640;2022-10-31T13:29:05;10.13;;;2.47;;
71667;SDS011;59504;54.806;9.640;2022-10-31T13:31:17;91.75;;;32.20;;
71667;SDS011;59504;54.806;9.640;2022-10-31T13:33:39;62.33;;;20.48;;
71667;SDS011;59504;54.806;9.640;2022-10-31T13:39:18;11.05;;;2.63;;
71667;SDS011;59504;54.806;9.640;2022-10-31T13:42:17;7.38;;;1.70;;
71667;SDS011;59504;54.806;9.640;2022-10-31T13:44:44;12.20;;;2.10;;
71667;SDS011;59504;54.806;9.640;2022-10-31T13:47:22;9.25;;;1.60;;
71667;SDS011;59504;54.806;9.640;2022-10-31T13:49:48;7.18;;;1.38;;
71667;SDS011;59504;54.806;9.640;2022-10-31T13:54:33;4.75;;;1.20;;
71667;SDS011;59504;54.806;9.640;2022-10-31T13:56:55;6.72;;;1.30;;
71667;SDS011;59504;54.806;9.640;2022-10-31T14:01:21;7.80;;;1.40;;
71667;SDS011;59504;54.806;9.640;2022-10-31T14:03:22;6.15;;;1.35;;
71667;SDS011;59504;54.806;9.640;2022-10-31T14:05:26;8.60;;;1.58;;
71667;SDS011;59504;54.806;9.640;2022-10-31T14:07:30;8.75;;;1.33;;
71667;SDS011;59504;54.806;9.640;2022-10-31T14:09:36;6.13;;;1.17;;
71667;SDS011;59504;54.806;9.640;2022-10-31T14:11:53;11.90;;;1.88;;
71667;SDS011;59504;54.806;9.640;2022-10-31T14:13:56;8.05;;;1.20;;
71667;SDS011;59504;54.806;9.640;2022-10-31T14:18:33;8.75;;;1.20;;
71667;SDS011;59504;54.806;9.640;2022-10-31T14:20:57;5.65;;;1.48;;
71667;SDS011;59504;54.806;9.640;2022-10-31T14:25:54;7.35;;;1.40;;
71667;SDS011;59504;54.806;9.640;2022-10-31T14:28:41;8.48;;;1.48;;
71667;SDS011;59504;54.806;9.640;2022-10-31T14:31:02;7.82;;;1.52;;
71667;SDS011;59504;54.806;9.640;2022-10-31T14:33:43;18.02;;;2.30;;
71667;SDS011;59504;54.806;9.640;2022-10-31T14:36:07;5.05;;;1.30;;
71667;SDS011;59504;54.806;9.640;2022-10-31T14:46:02;7.88;;;1.60;;
71667;SDS011;59504;54.806;9.640;2022-10-31T14:51:10;5.82;;;1.42;;